createdAt,value
2017-01-24T00:00:10.279Z,24.7
2017-01-24T00:01:10.315Z,24.7
2017-01-24T00:02:09.453Z,24.7
2017-01-24T00:03:09.426Z,24.7
2017-01-24T00:04:10.667Z,24.7
2017-01-24T00:05:09.477Z,24.7
2017-01-24T00:06:09.488Z,24.7
2017-01-24T00:07:10.681Z,24.7
2017-01-24T00:08:10.653Z,24.7
2017-01-24T00:09:10.721Z,24.7
2017-01-24T00:10:10.766Z,24.7
2017-01-24T00:11:10.633Z,24.7
2017-01-24T00:12:09.809Z,24.7
2017-01-24T00:13:10.905Z,24.7
2017-01-24T00:14:10.596Z,24.7
2017-01-24T00:15:11.031Z,24.7
2017-01-24T00:16:11.198Z,24.7
2017-01-24T00:17:11.160Z,24.7
2017-01-24T00:18:11.199Z,24.7
2017-01-24T00:19:11.910Z,24.7
2017-01-24T00:20:11.238Z,24.7
2017-01-24T00:21:10.213Z,24.7
2017-01-24T00:22:10.274Z,24.7
2017-01-24T00:23:10.357Z,24.7
2017-01-24T00:24:11.495Z,24.7
2017-01-24T00:25:10.546Z,24.7
2017-01-24T00:26:11.567Z,24.7
2017-01-24T00:27:10.572Z,24.7
2017-01-24T00:28:10.576Z,24.7
2017-01-24T00:29:10.633Z,24.7
2017-01-24T00:30:10.722Z,24.7
2017-01-24T00:31:11.888Z,24.7
2017-01-24T00:32:12.487Z,24.7
2017-01-24T00:33:10.957Z,24.7
2017-01-24T00:34:11.012Z,24.7
2017-01-24T00:35:12.118Z,24.7
2017-01-24T00:36:12.202Z,24.7
2017-01-24T00:37:12.361Z,24.7
2017-01-24T00:38:11.247Z,24.7
2017-01-24T00:39:11.315Z,24.7
2017-01-24T00:40:12.405Z,24.7
2017-01-24T00:41:12.502Z,24.6
2017-01-24T00:42:11.489Z,24.6
2017-01-24T00:43:11.515Z,24.6
2017-01-24T00:44:11.650Z,24.7
2017-01-24T00:45:11.653Z,24.7
2017-01-24T00:46:11.740Z,24.7
2017-01-24T00:47:12.821Z,24.7
2017-01-24T00:48:11.752Z,24.7
2017-01-24T00:49:12.847Z,24.7
2017-01-24T00:50:11.881Z,24.7
2017-01-24T00:51:11.883Z,24.7
2017-01-24T00:52:12.940Z,24.6
2017-01-24T00:53:11.911Z,24.6
2017-01-24T00:54:13.081Z,24.6
2017-01-24T00:55:12.045Z,24.6
2017-01-24T00:56:13.178Z,24.7
2017-01-24T00:57:12.156Z,24.6
2017-01-24T00:58:13.223Z,24.6
2017-01-24T00:59:13.393Z,24.6
2017-01-24T01:00:12.214Z,24.6
2017-01-24T01:01:12.304Z,24.6
2017-01-24T01:02:12.343Z,24.6
2017-01-24T01:03:12.354Z,24.6
2017-01-24T01:04:12.405Z,24.6
2017-01-24T01:05:12.453Z,24.6
2017-01-24T01:06:13.655Z,24.6
2017-01-24T01:07:13.639Z,24.6
2017-01-24T01:08:13.882Z,24.6
2017-01-24T01:09:13.684Z,24.6
2017-01-24T01:10:12.684Z,24.6
2017-01-24T01:11:13.802Z,24.6
2017-01-24T01:12:13.851Z,24.6
2017-01-24T01:13:14.528Z,24.6
2017-01-24T01:14:12.904Z,24.6
2017-01-24T01:15:12.936Z,24.6
2017-01-24T01:16:14.070Z,24.6
2017-01-24T01:17:14.133Z,24.6
2017-01-24T01:18:14.213Z,24.6
2017-01-24T01:19:13.253Z,24.6
2017-01-24T01:20:14.371Z,24.6
2017-01-24T01:21:14.403Z,24.6
2017-01-24T01:22:13.996Z,24.6
2017-01-24T01:23:13.459Z,24.6
2017-01-24T01:24:13.549Z,24.6
2017-01-24T01:25:14.682Z,24.6
2017-01-24T01:26:13.712Z,24.6
2017-01-24T01:27:13.759Z,24.6
2017-01-24T01:28:13.822Z,24.6
2017-01-24T01:29:14.932Z,24.6
2017-01-24T01:30:14.928Z,24.6
2017-01-24T01:31:14.061Z,24.6
2017-01-24T01:32:13.973Z,24.6
2017-01-24T01:33:15.112Z,24.6
2017-01-24T01:34:15.213Z,24.6
2017-01-24T01:35:15.315Z,24.6
2017-01-24T01:36:15.282Z,24.6
2017-01-24T01:37:15.387Z,24.6
2017-01-24T01:38:15.403Z,24.6
2017-01-24T01:39:14.365Z,24.6
2017-01-24T01:40:15.211Z,24.6
2017-01-24T01:41:14.561Z,24.6
2017-01-24T01:42:14.776Z,24.6
2017-01-24T01:43:14.679Z,24.6
2017-01-24T01:44:15.782Z,24.6
2017-01-24T01:45:14.813Z,24.6
2017-01-24T01:46:16.958Z,24.6
2017-01-24T01:47:15.935Z,24.6
2017-01-24T01:48:16.021Z,24.6
2017-01-24T01:49:16.023Z,24.6
2017-01-24T01:50:15.027Z,24.6
2017-01-24T01:51:15.209Z,24.6
2017-01-24T01:52:16.226Z,24.6
2017-01-24T01:53:16.241Z,24.6
2017-01-24T01:54:15.221Z,24.6
2017-01-24T01:55:16.404Z,24.6
2017-01-24T01:56:16.586Z,24.6
2017-01-24T01:57:15.436Z,24.6
2017-01-24T01:58:16.574Z,24.7
2017-01-24T01:59:15.569Z,24.6
2017-01-24T02:00:15.675Z,24.6
2017-01-24T02:01:16.798Z,24.6
2017-01-24T02:02:18.143Z,24.6
2017-01-24T02:03:15.763Z,24.6
2017-01-24T02:04:17.429Z,24.6
2017-01-24T02:05:16.934Z,24.6
2017-01-24T02:06:17.017Z,24.7
2017-01-24T02:07:15.932Z,24.6
2017-01-24T02:08:15.943Z,24.6
2017-01-24T02:09:17.045Z,24.6
2017-01-24T02:10:17.090Z,24.6
2017-01-24T02:11:16.187Z,24.6
2017-01-24T02:12:17.245Z,24.6
2017-01-24T02:13:17.292Z,24.6
2017-01-24T02:14:16.326Z,24.6
2017-01-24T02:15:17.410Z,24.6
2017-01-24T02:16:17.452Z,24.6
2017-01-24T02:17:17.533Z,24.6
2017-01-24T02:18:17.549Z,24.6
2017-01-24T02:19:16.503Z,24.6
2017-01-24T02:20:16.521Z,24.6
2017-01-24T02:21:17.643Z,24.6
2017-01-24T02:22:17.650Z,24.6
2017-01-24T02:23:18.317Z,24.6
2017-01-24T02:24:17.430Z,24.6
2017-01-24T02:25:16.657Z,24.6
2017-01-24T02:26:16.739Z,24.6
2017-01-24T02:27:16.811Z,24.6
2017-01-24T02:28:17.928Z,24.6
2017-01-24T02:29:17.904Z,24.6
2017-01-24T02:30:17.980Z,24.6
2017-01-24T02:31:17.963Z,24.6
2017-01-24T02:32:16.950Z,24.6
2017-01-24T02:33:17.029Z,24.6
2017-01-24T02:34:18.208Z,24.6
2017-01-24T02:35:17.210Z,24.6
2017-01-24T02:36:18.288Z,24.6
2017-01-24T02:37:17.229Z,24.6
2017-01-24T02:38:18.349Z,24.6
2017-01-24T02:39:18.402Z,24.6
2017-01-24T02:40:17.383Z,24.6
2017-01-24T02:41:17.503Z,24.6
2017-01-24T02:42:17.467Z,24.6
2017-01-24T02:43:17.532Z,24.6
2017-01-24T02:44:17.593Z,24.6
2017-01-24T02:45:18.719Z,24.6
2017-01-24T02:46:17.716Z,24.6
2017-01-24T02:47:18.807Z,24.6
2017-01-24T02:48:18.508Z,24.6
2017-01-24T02:49:18.923Z,24.6
2017-01-24T02:50:20.907Z,24.6
2017-01-24T02:51:17.956Z,24.6
2017-01-24T02:52:19.082Z,24.6
2017-01-24T02:53:19.118Z,24.6
2017-01-24T02:54:18.081Z,24.6
2017-01-24T02:55:19.234Z,24.6
2017-01-24T02:56:19.333Z,24.6
2017-01-24T02:57:18.317Z,24.6
2017-01-24T02:58:18.572Z,24.6
2017-01-24T02:59:20.101Z,24.6
2017-01-24T03:00:18.596Z,24.6
2017-01-24T03:01:18.675Z,24.6
2017-01-24T03:02:19.503Z,24.6
2017-01-24T03:03:19.761Z,24.6
2017-01-24T03:04:19.800Z,24.6
2017-01-24T03:05:18.741Z,24.6
2017-01-24T03:06:18.854Z,24.6
2017-01-24T03:07:19.495Z,24.6
2017-01-24T03:08:18.976Z,24.6
2017-01-24T03:09:18.983Z,24.6
2017-01-24T03:10:19.047Z,24.6
2017-01-24T03:11:19.060Z,24.6
2017-01-24T03:12:20.142Z,24.6
2017-01-24T03:13:21.106Z,24.6
2017-01-24T03:14:19.036Z,24.6
2017-01-24T03:15:20.161Z,24.6
2017-01-24T03:16:19.079Z,24.6
2017-01-24T03:17:19.193Z,24.6
2017-01-24T03:18:19.144Z,24.6
2017-01-24T03:19:19.253Z,24.6
2017-01-24T03:20:19.963Z,24.6
2017-01-24T03:21:21.411Z,24.6
2017-01-24T03:22:19.323Z,24.6
2017-01-24T03:23:19.414Z,24.6
2017-01-24T03:24:19.516Z,24.6
2017-01-24T03:25:20.637Z,24.6
2017-01-24T03:26:21.702Z,24.6
2017-01-24T03:27:19.635Z,24.6
2017-01-24T03:28:19.713Z,24.6
2017-01-24T03:29:21.465Z,24.6
2017-01-24T03:30:19.893Z,24.6
2017-01-24T03:31:20.038Z,24.6
2017-01-24T03:32:20.133Z,24.6
2017-01-24T03:33:20.145Z,24.6
2017-01-24T03:34:21.274Z,24.6
2017-01-24T03:35:21.321Z,24.6
2017-01-24T03:36:21.407Z,24.6
2017-01-24T03:37:21.442Z,24.6
2017-01-24T03:38:20.470Z,24.6
2017-01-24T03:39:21.576Z,24.6
2017-01-24T03:40:20.413Z,24.6
2017-01-24T03:41:21.561Z,24.6
2017-01-24T03:42:21.520Z,24.6
2017-01-24T03:43:20.567Z,24.6
2017-01-24T03:44:20.541Z,24.6
2017-01-24T03:45:21.198Z,24.6
2017-01-24T03:46:21.686Z,24.6
2017-01-24T03:47:20.660Z,24.6
2017-01-24T03:48:21.796Z,24.6
2017-01-24T03:49:21.802Z,24.6
2017-01-24T03:50:21.574Z,24.6
2017-01-24T03:51:20.893Z,24.6
2017-01-24T03:52:22.051Z,24.6
2017-01-24T03:53:22.114Z,24.6
2017-01-24T03:54:22.159Z,24.6
2017-01-24T03:55:22.255Z,24.6
2017-01-24T03:56:22.359Z,24.6
2017-01-24T03:57:22.418Z,24.6
2017-01-24T03:58:22.356Z,24.6
2017-01-24T03:59:22.474Z,24.5
2017-01-24T04:00:21.430Z,24.6
2017-01-24T04:01:21.946Z,24.6
2017-01-24T04:02:21.422Z,24.6
2017-01-24T04:03:21.575Z,24.6
2017-01-24T04:04:22.598Z,24.6
2017-01-24T04:05:22.362Z,24.6
2017-01-24T04:06:21.712Z,24.6
2017-01-24T04:07:21.759Z,24.6
2017-01-24T04:08:22.803Z,24.6
2017-01-24T04:09:22.585Z,24.6
2017-01-24T04:10:22.414Z,24.6
2017-01-24T04:11:23.022Z,24.6
2017-01-24T04:12:23.010Z,24.6
2017-01-24T04:13:21.944Z,24.6
2017-01-24T04:14:23.042Z,24.6
2017-01-24T04:15:22.034Z,24.6
2017-01-24T04:16:23.064Z,24.6
2017-01-24T04:17:22.106Z,24.6
2017-01-24T04:18:23.236Z,24.6
2017-01-24T04:19:22.159Z,24.6
2017-01-24T04:20:23.255Z,24.6
2017-01-24T04:21:22.317Z,24.6
2017-01-24T04:22:23.383Z,24.6
2017-01-24T04:23:22.258Z,24.6
2017-01-24T04:24:22.292Z,24.6
2017-01-24T04:25:23.509Z,24.6
2017-01-24T04:26:22.426Z,24.6
2017-01-24T04:27:22.459Z,24.6
2017-01-24T04:28:22.500Z,24.6
2017-01-24T04:29:22.568Z,24.6
2017-01-24T04:30:23.594Z,24.6
2017-01-24T04:31:23.771Z,24.5
2017-01-24T04:32:23.362Z,24.5
2017-01-24T04:33:22.941Z,24.5
2017-01-24T04:34:24.080Z,24.6
2017-01-24T04:35:24.202Z,24.5
2017-01-24T04:36:24.151Z,24.6
2017-01-24T04:37:24.099Z,24.6
2017-01-24T04:38:23.062Z,24.6
2017-01-24T04:39:23.233Z,24.6
2017-01-24T04:40:23.283Z,24.5
2017-01-24T04:41:24.324Z,24.5
2017-01-24T04:42:23.990Z,24.5
2017-01-24T04:43:24.440Z,24.5
2017-01-24T04:44:24.524Z,24.5
2017-01-24T04:45:23.477Z,24.5
2017-01-24T04:46:24.753Z,24.5
2017-01-24T04:47:23.619Z,24.5
2017-01-24T04:48:25.234Z,24.5
2017-01-24T04:49:25.460Z,24.5
2017-01-24T04:50:25.419Z,24.5
2017-01-24T04:51:24.821Z,24.5
2017-01-24T04:52:24.898Z,24.5
2017-01-24T04:53:25.060Z,24.5
2017-01-24T04:54:25.022Z,24.5
2017-01-24T04:55:24.800Z,24.5
2017-01-24T04:56:25.014Z,24.5
2017-01-24T04:57:25.194Z,24.5
2017-01-24T04:58:24.199Z,24.6
2017-01-24T04:59:24.241Z,24.6
2017-01-24T05:00:25.265Z,24.6
2017-01-24T05:01:25.356Z,24.5
2017-01-24T05:02:25.416Z,24.5
2017-01-24T05:03:25.417Z,24.6
2017-01-24T05:04:24.487Z,24.6
2017-01-24T05:05:25.505Z,24.6
2017-01-24T05:06:25.577Z,24.6
2017-01-24T05:07:25.573Z,24.6
2017-01-24T05:08:25.647Z,24.6
2017-01-24T05:09:25.621Z,24.6
2017-01-24T05:10:25.768Z,24.5
2017-01-24T05:11:25.785Z,24.6
2017-01-24T05:12:24.709Z,24.5
2017-01-24T05:13:25.535Z,24.6
2017-01-24T05:14:25.960Z,24.5
2017-01-24T05:15:24.885Z,24.5
2017-01-24T05:16:26.023Z,24.5
2017-01-24T05:17:25.981Z,24.5
2017-01-24T05:18:26.184Z,24.5
2017-01-24T05:19:25.011Z,24.5
2017-01-24T05:20:26.219Z,24.5
2017-01-24T05:21:26.212Z,24.6
2017-01-24T05:22:25.238Z,24.5
2017-01-24T05:23:26.391Z,24.5
2017-01-24T05:24:26.397Z,24.5
2017-01-24T05:25:26.439Z,24.5
2017-01-24T05:26:26.809Z,24.5
2017-01-24T05:27:26.453Z,24.5
2017-01-24T05:28:27.355Z,24.5
2017-01-24T05:29:25.604Z,24.5
2017-01-24T05:30:25.669Z,24.5
2017-01-24T05:31:26.805Z,24.5
2017-01-24T05:32:25.802Z,24.5
2017-01-24T05:33:26.891Z,24.5
2017-01-24T05:34:25.838Z,24.5
2017-01-24T05:35:25.833Z,24.5
2017-01-24T05:36:26.419Z,24.5
2017-01-24T05:37:26.972Z,24.5
2017-01-24T05:38:27.383Z,24.6
2017-01-24T05:39:26.029Z,24.8
2017-01-24T05:40:26.129Z,24.9
2017-01-24T05:41:26.210Z,24.9
2017-01-24T05:42:27.216Z,25
2017-01-24T05:43:26.220Z,25
2017-01-24T05:44:28.118Z,25
2017-01-24T05:45:27.415Z,25.1
2017-01-24T05:46:28.244Z,25.2
2017-01-24T05:47:29.684Z,25.3
2017-01-24T05:48:27.239Z,25.3
2017-01-24T05:49:26.722Z,25.3
2017-01-24T05:50:27.703Z,25.4
2017-01-24T05:51:26.710Z,25.4
2017-01-24T05:52:27.848Z,25.4
2017-01-24T05:53:27.859Z,25.4
2017-01-24T05:54:26.785Z,25.4
2017-01-24T05:55:27.987Z,25.4
2017-01-24T05:56:26.971Z,25.4
2017-01-24T05:57:27.027Z,25.4
2017-01-24T05:58:28.000Z,25.4
2017-01-24T05:59:28.151Z,25.4
2017-01-24T06:00:27.144Z,25.4
2017-01-24T06:01:28.154Z,25.4
2017-01-24T06:02:28.246Z,25.4
2017-01-24T06:03:27.304Z,25.4
2017-01-24T06:04:27.349Z,25.4
2017-01-24T06:05:28.388Z,25.4
2017-01-24T06:06:28.476Z,25.3
2017-01-24T06:07:29.151Z,25.3
2017-01-24T06:08:27.467Z,25.3
2017-01-24T06:09:28.133Z,25.3
2017-01-24T06:10:28.663Z,25.3
2017-01-24T06:11:29.377Z,25.3
2017-01-24T06:12:27.782Z,25.3
2017-01-24T06:13:28.836Z,25.3
2017-01-24T06:14:27.809Z,25.3
2017-01-24T06:15:29.051Z,25.3
2017-01-24T06:16:28.071Z,25.3
2017-01-24T06:17:29.131Z,25.3
2017-01-24T06:18:29.412Z,25.3
2017-01-24T06:19:29.326Z,25.3
2017-01-24T06:20:29.320Z,25.3
2017-01-24T06:21:28.303Z,25.2
2017-01-24T06:22:30.049Z,25.2
2017-01-24T06:23:29.350Z,25.2
2017-01-24T06:24:29.451Z,25.2
2017-01-24T06:25:28.491Z,25.2
2017-01-24T06:26:29.572Z,25.2
2017-01-24T06:27:29.820Z,25.3
2017-01-24T06:28:29.794Z,25.4
2017-01-24T06:29:30.496Z,25.4
2017-01-24T06:30:28.650Z,25.5
2017-01-24T06:31:28.700Z,25.5
2017-01-24T06:32:28.729Z,25.5
2017-01-24T06:33:28.884Z,25.6
2017-01-24T06:34:30.014Z,25.6
2017-01-24T06:35:28.955Z,25.7
2017-01-24T06:36:30.065Z,25.7
2017-01-24T06:37:29.704Z,25.8
2017-01-24T06:38:30.238Z,25.8
2017-01-24T06:39:29.264Z,25.8
2017-01-24T06:40:29.349Z,25.9
2017-01-24T06:41:30.543Z,25.9
2017-01-24T06:42:29.459Z,25.9
2017-01-24T06:43:30.502Z,25.9
2017-01-24T06:44:29.508Z,26
2017-01-24T06:45:30.688Z,26
2017-01-24T06:46:29.757Z,26
2017-01-24T06:47:30.208Z,26
2017-01-24T06:48:30.797Z,26.1
2017-01-24T06:49:30.902Z,26.1
2017-01-24T06:50:30.509Z,26.1
2017-01-24T06:51:31.018Z,26.1
2017-01-24T06:52:31.117Z,26
2017-01-24T06:53:29.976Z,25.8
2017-01-24T06:54:30.585Z,25.6
2017-01-24T06:55:30.061Z,25.5
2017-01-24T06:56:30.175Z,25.4
2017-01-24T06:57:30.204Z,25.3
2017-01-24T06:58:30.307Z,25.3
2017-01-24T06:59:31.291Z,25.3
2017-01-24T07:00:30.310Z,25.4
2017-01-24T07:01:30.390Z,25.4
2017-01-24T07:02:31.481Z,25.5
2017-01-24T07:03:30.627Z,25.5
2017-01-24T07:04:30.482Z,25.6
2017-01-24T07:05:30.818Z,25.6
2017-01-24T07:06:30.774Z,25.7
2017-01-24T07:07:32.532Z,25.8
2017-01-24T07:08:30.735Z,25.9
2017-01-24T07:09:32.066Z,26.1
2017-01-24T07:10:32.003Z,26.1
2017-01-24T07:11:30.924Z,26.1
2017-01-24T07:12:32.134Z,26.1
2017-01-24T07:13:31.046Z,26.2
2017-01-24T07:14:32.366Z,26.2
2017-01-24T07:15:32.302Z,26.2
2017-01-24T07:16:32.528Z,26.3
2017-01-24T07:17:32.366Z,26.3
2017-01-24T07:18:32.417Z,26.4
2017-01-24T07:19:31.468Z,26.4
2017-01-24T07:20:33.970Z,26.5
2017-01-24T07:21:33.865Z,26.6
2017-01-24T07:22:31.586Z,26.6
2017-01-24T07:23:32.811Z,26.7
2017-01-24T07:24:32.997Z,26.7
2017-01-24T07:25:34.268Z,26.8
2017-01-24T07:26:31.935Z,26.8
2017-01-24T07:27:33.675Z,26.9
2017-01-24T07:28:33.210Z,27
2017-01-24T07:29:32.084Z,27.1
2017-01-24T07:30:33.706Z,27.2
2017-01-24T07:31:32.327Z,27.3
2017-01-24T07:32:33.340Z,27.3
2017-01-24T07:33:32.803Z,27.4
2017-01-24T07:34:33.414Z,27.5
2017-01-24T07:35:34.310Z,27.5
2017-01-24T07:36:32.522Z,27.6
2017-01-24T07:37:32.409Z,27.6
2017-01-24T07:38:32.555Z,27.7
2017-01-24T07:39:34.156Z,27.7
2017-01-24T07:40:33.398Z,27.8
2017-01-24T07:41:32.651Z,27.8
2017-01-24T07:42:33.686Z,27.8
2017-01-24T07:43:35.146Z,27.9
2017-01-24T07:44:34.403Z,28
2017-01-24T07:45:32.781Z,28
2017-01-24T07:46:32.750Z,28
2017-01-24T07:47:34.716Z,28
2017-01-24T07:48:34.488Z,28.1
2017-01-24T07:49:34.132Z,28.1
2017-01-24T07:50:34.701Z,28.1
2017-01-24T07:51:34.172Z,28.1
2017-01-24T07:52:33.312Z,28.2
2017-01-24T07:53:34.262Z,28.2
2017-01-24T07:54:34.300Z,28.2
2017-01-24T07:55:33.332Z,28.3
2017-01-24T07:56:34.467Z,28.2
2017-01-24T07:57:34.366Z,28.2
2017-01-24T07:58:33.459Z,28.3
2017-01-24T07:59:33.557Z,28.3
2017-01-24T08:00:35.145Z,28.3
2017-01-24T08:01:33.500Z,28.3
2017-01-24T08:02:34.673Z,28.2
2017-01-24T08:03:33.715Z,28.2
2017-01-24T08:04:33.704Z,28.2
2017-01-24T08:05:34.378Z,28.2
2017-01-24T08:06:33.904Z,28.2
2017-01-24T08:07:34.035Z,28.3
2017-01-24T08:08:35.413Z,28.3
2017-01-24T08:09:34.273Z,28.4
2017-01-24T08:10:35.515Z,28.4
2017-01-24T08:11:35.936Z,28.3
2017-01-24T08:12:35.435Z,28.3
2017-01-24T08:13:34.860Z,28.3
2017-01-24T08:14:35.027Z,28.2
2017-01-24T08:15:35.326Z,28.1
2017-01-24T08:16:36.904Z,28.1
2017-01-24T08:17:38.549Z,28
2017-01-24T08:18:37.472Z,28
2017-01-24T08:19:36.698Z,28
2017-01-24T08:20:36.730Z,28
2017-01-24T08:21:39.310Z,28
2017-01-24T08:22:36.167Z,28
2017-01-24T08:23:38.127Z,28
2017-01-24T08:24:37.501Z,27.9
2017-01-24T08:25:38.994Z,28
2017-01-24T08:26:37.851Z,27.9
2017-01-24T08:27:37.850Z,27.9
2017-01-24T08:28:35.272Z,27.9
2017-01-24T08:29:39.317Z,27.9
2017-01-24T08:30:35.283Z,27.9
2017-01-24T08:31:39.574Z,27.9
2017-01-24T08:32:36.392Z,27.9
2017-01-24T08:33:37.173Z,27.9
2017-01-24T08:34:37.607Z,27.9
2017-01-24T08:35:35.032Z,27.9
2017-01-24T08:36:40.960Z,27.8
2017-01-24T08:37:35.141Z,27.8
2017-01-24T08:38:37.793Z,27.8
2017-01-24T08:39:36.297Z,27.7
2017-01-24T08:40:37.902Z,27.7
2017-01-24T08:41:38.178Z,27.7
2017-01-24T08:42:39.862Z,27.7
2017-01-24T08:43:38.124Z,27.7
2017-01-24T08:44:36.315Z,27.7
2017-01-24T08:45:35.924Z,27.7
2017-01-24T08:46:35.346Z,27.7
2017-01-24T08:47:38.209Z,27.7
2017-01-24T08:48:36.748Z,27.7
2017-01-24T08:49:38.065Z,27.7
2017-01-24T08:50:40.560Z,27.7
2017-01-24T08:51:40.648Z,27.7
2017-01-24T08:52:38.208Z,27.7
2017-01-24T08:53:36.939Z,27.7
2017-01-24T08:54:42.480Z,27.6
2017-01-24T08:55:37.578Z,27.6
2017-01-24T08:56:40.041Z,27.6
2017-01-24T08:57:35.846Z,27.6
2017-01-24T08:58:36.310Z,27.6
2017-01-24T08:59:37.973Z,27.6
2017-01-24T09:00:37.004Z,27.5
2017-01-24T09:01:36.800Z,27.5
2017-01-24T09:02:38.464Z,27.5
2017-01-24T09:03:37.167Z,27.5
2017-01-24T09:04:37.213Z,27.6
2017-01-24T09:05:37.282Z,27.5
2017-01-24T09:06:36.378Z,27.5
2017-01-24T09:07:38.711Z,27.5
2017-01-24T09:08:36.400Z,27.4
2017-01-24T09:09:38.293Z,27.4
2017-01-24T09:10:40.538Z,27.4
2017-01-24T09:11:38.534Z,27.4
2017-01-24T09:12:38.059Z,27.4
2017-01-24T09:13:38.589Z,27.4
2017-01-24T09:14:41.738Z,27.4
2017-01-24T09:15:43.674Z,27.4
2017-01-24T09:16:39.403Z,27.4
2017-01-24T09:17:42.230Z,27.4
2017-01-24T09:18:40.138Z,27.4
2017-01-24T09:19:39.757Z,27.4
2017-01-24T09:20:41.153Z,27.4
2017-01-24T09:21:38.663Z,27.3
2017-01-24T09:22:38.199Z,27.1
2017-01-24T09:23:38.082Z,27
2017-01-24T09:24:38.351Z,27
2017-01-24T09:25:38.301Z,27
2017-01-24T09:26:38.716Z,26.9
2017-01-24T09:27:38.720Z,26.9
2017-01-24T09:28:38.504Z,26.9
2017-01-24T09:29:38.889Z,26.9
2017-01-24T09:30:39.525Z,26.9
2017-01-24T09:31:37.881Z,26.9
2017-01-24T09:32:38.454Z,26.9
2017-01-24T09:33:38.700Z,26.9
2017-01-24T09:34:40.122Z,26.9
2017-01-24T09:35:39.268Z,26.9
2017-01-24T09:36:39.249Z,26.9
2017-01-24T09:37:39.308Z,26.9
2017-01-24T09:38:39.239Z,26.9
2017-01-24T09:39:38.893Z,26.9
2017-01-24T09:40:38.406Z,26.9
2017-01-24T09:41:38.225Z,26.9
2017-01-24T09:42:38.940Z,26.9
2017-01-24T09:43:38.327Z,26.9
2017-01-24T09:44:38.304Z,26.9
2017-01-24T09:45:39.036Z,26.9
2017-01-24T09:46:38.365Z,26.9
2017-01-24T09:47:39.705Z,26.8
2017-01-24T09:48:39.290Z,26.8
2017-01-24T09:49:43.489Z,26.8
2017-01-24T09:50:41.785Z,26.7
2017-01-24T09:51:42.345Z,26.7
2017-01-24T09:52:41.675Z,26.7
2017-01-24T09:53:39.956Z,26.7
2017-01-24T09:54:42.780Z,26.7
2017-01-24T09:55:40.173Z,26.7
2017-01-24T09:56:41.027Z,26.8
2017-01-24T09:57:40.556Z,26.8
2017-01-24T09:58:44.050Z,26.8
2017-01-24T09:59:40.988Z,26.9
2017-01-24T10:00:42.197Z,26.9
2017-01-24T10:01:42.944Z,26.9
2017-01-24T10:02:40.900Z,26.9
2017-01-24T10:03:40.241Z,26.9
2017-01-24T10:04:40.032Z,26.9
2017-01-24T10:05:38.997Z,26.9
2017-01-24T10:06:39.113Z,27
2017-01-24T10:07:40.820Z,27
2017-01-24T10:08:39.295Z,27
2017-01-24T10:09:40.423Z,27
2017-01-24T10:10:40.315Z,27
2017-01-24T10:11:39.420Z,27
2017-01-24T10:12:39.571Z,27
2017-01-24T10:13:41.436Z,27
2017-01-24T10:14:40.671Z,27
2017-01-24T10:15:39.604Z,27
2017-01-24T10:16:41.194Z,27
2017-01-24T10:17:40.793Z,27
2017-01-24T10:18:41.311Z,27.1
2017-01-24T10:19:42.247Z,27.1
2017-01-24T10:20:40.853Z,27.1
2017-01-24T10:21:40.975Z,27.1
2017-01-24T10:22:40.923Z,27.1
2017-01-24T10:23:40.879Z,27.1
2017-01-24T10:24:41.028Z,27.1
2017-01-24T10:25:41.617Z,27.1
2017-01-24T10:26:43.251Z,27.1
2017-01-24T10:27:41.876Z,27.1
2017-01-24T10:28:40.877Z,27.2
2017-01-24T10:29:41.304Z,27.2
2017-01-24T10:30:44.591Z,27.2
2017-01-24T10:31:41.137Z,27.2
2017-01-24T10:32:40.413Z,27.2
2017-01-24T10:33:41.804Z,27.3
2017-01-24T10:34:43.838Z,27.3
2017-01-24T10:35:46.131Z,27.3
2017-01-24T10:36:41.833Z,27.3
2017-01-24T10:37:40.729Z,27.3
2017-01-24T10:38:40.855Z,27.3
2017-01-24T10:39:41.278Z,27.3
2017-01-24T10:40:42.861Z,27.3
2017-01-24T10:41:42.025Z,27.3
2017-01-24T10:42:40.997Z,27.3
2017-01-24T10:43:41.083Z,27.3
2017-01-24T10:44:41.765Z,27.3
2017-01-24T10:45:41.304Z,27.3
2017-01-24T10:46:42.315Z,27.3
2017-01-24T10:47:42.266Z,27.3
2017-01-24T10:48:42.434Z,27.4
2017-01-24T10:49:42.083Z,27.4
2017-01-24T10:50:42.554Z,27.4
2017-01-24T10:51:42.821Z,27.4
2017-01-24T10:52:42.977Z,27.4
2017-01-24T10:53:42.781Z,27.4
2017-01-24T10:54:44.565Z,27.4
2017-01-24T10:55:43.488Z,27.4
2017-01-24T10:56:41.861Z,27.4
2017-01-24T10:57:45.210Z,27.4
2017-01-24T10:58:45.524Z,27.4
2017-01-24T10:59:43.745Z,27.4
2017-01-24T11:00:43.351Z,27.4
2017-01-24T11:01:44.379Z,27.4
2017-01-24T11:02:43.338Z,27.4
2017-01-24T11:03:42.338Z,27.4
2017-01-24T11:04:44.007Z,27.4
2017-01-24T11:05:43.573Z,27.5
2017-01-24T11:06:44.324Z,27.5
2017-01-24T11:07:42.475Z,27.5
2017-01-24T11:08:43.576Z,27.5
2017-01-24T11:09:42.438Z,27.5
2017-01-24T11:10:42.586Z,27.5
2017-01-24T11:11:42.637Z,27.5
2017-01-24T11:12:44.353Z,27.5
2017-01-24T11:13:44.348Z,27.5
2017-01-24T11:14:42.821Z,27.5
2017-01-24T11:15:43.858Z,27.5
2017-01-24T11:16:45.916Z,27.5
2017-01-24T11:17:44.087Z,27.5
2017-01-24T11:18:45.493Z,27.5
2017-01-24T11:19:45.669Z,27.5
2017-01-24T11:20:45.405Z,27.6
2017-01-24T11:21:45.561Z,27.6
2017-01-24T11:22:44.074Z,27.6
2017-01-24T11:23:43.292Z,27.6
2017-01-24T11:24:44.323Z,27.6
2017-01-24T11:25:43.855Z,27.6
2017-01-24T11:26:43.336Z,27.6
2017-01-24T11:27:44.531Z,27.6
2017-01-24T11:28:43.476Z,27.6
2017-01-24T11:29:44.594Z,27.6
2017-01-24T11:30:50.806Z,27.6
2017-01-24T11:31:48.503Z,27.6
2017-01-24T11:32:43.892Z,27.6
2017-01-24T11:33:45.017Z,27.6
2017-01-24T11:34:44.942Z,27.6
2017-01-24T11:35:44.723Z,27.6
2017-01-24T11:36:44.140Z,27.6
2017-01-24T11:37:43.950Z,27.6
2017-01-24T11:38:45.087Z,27.6
2017-01-24T11:39:45.245Z,27.6
2017-01-24T11:40:44.444Z,27.6
2017-01-24T11:41:44.588Z,27.7
2017-01-24T11:42:45.481Z,27.7
2017-01-24T11:43:46.459Z,27.7
2017-01-24T11:44:44.953Z,27.7
2017-01-24T11:45:44.913Z,27.7
2017-01-24T11:46:47.164Z,27.7
2017-01-24T11:47:45.591Z,27.7
2017-01-24T11:48:44.587Z,27.7
2017-01-24T11:49:47.001Z,27.7
2017-01-24T11:50:45.763Z,27.8
2017-01-24T11:51:46.275Z,27.8
2017-01-24T11:52:44.899Z,27.8
2017-01-24T11:53:51.284Z,27.8
2017-01-24T11:54:46.522Z,27.8
2017-01-24T11:55:48.875Z,27.7
2017-01-24T11:56:44.987Z,27.7
2017-01-24T11:57:46.101Z,27.7
2017-01-24T11:58:45.095Z,27.7
2017-01-24T11:59:45.851Z,27.8
2017-01-24T12:00:46.469Z,27.8
2017-01-24T12:01:46.487Z,27.8
2017-01-24T12:02:45.383Z,27.8
2017-01-24T12:03:46.165Z,27.7
2017-01-24T12:04:45.499Z,27.7
2017-01-24T12:05:47.987Z,27.7
2017-01-24T12:06:46.873Z,27.7
2017-01-24T12:07:46.189Z,27.7
2017-01-24T12:08:46.590Z,27.7
2017-01-24T12:09:46.514Z,27.6
2017-01-24T12:10:48.381Z,27.6
2017-01-24T12:11:51.454Z,27.5
2017-01-24T12:12:50.548Z,27.5
2017-01-24T12:13:47.775Z,27.5
2017-01-24T12:14:45.574Z,27.4
2017-01-24T12:15:45.693Z,27.4
2017-01-24T12:16:47.490Z,27.4
2017-01-24T12:17:47.300Z,27.3
2017-01-24T12:18:47.073Z,27.3
2017-01-24T12:19:45.942Z,27.3
2017-01-24T12:20:47.001Z,27.3
2017-01-24T12:21:47.766Z,27.3
2017-01-24T12:22:48.567Z,27.2
2017-01-24T12:23:48.471Z,27.2
2017-01-24T12:24:47.382Z,27.2
2017-01-24T12:25:48.631Z,27.2
2017-01-24T12:26:47.678Z,27.2
2017-01-24T12:27:46.872Z,27.2
2017-01-24T12:28:46.381Z,27.2
2017-01-24T12:29:48.267Z,27.2
2017-01-24T12:30:48.130Z,27.2
2017-01-24T12:31:48.020Z,27.2
2017-01-24T12:32:46.604Z,27.1
2017-01-24T12:33:47.622Z,27.1
2017-01-24T12:34:46.692Z,27.1
2017-01-24T12:35:47.804Z,27.1
2017-01-24T12:36:48.509Z,27.1
2017-01-24T12:37:47.559Z,27.1
2017-01-24T12:38:47.951Z,27.1
2017-01-24T12:39:48.016Z,27.1
2017-01-24T12:40:48.392Z,27.1
2017-01-24T12:41:50.760Z,27.1
2017-01-24T12:42:47.612Z,27.1
2017-01-24T12:43:50.673Z,27.1
2017-01-24T12:44:47.881Z,27
2017-01-24T12:45:48.512Z,27
2017-01-24T12:46:48.263Z,27
2017-01-24T12:47:49.611Z,27
2017-01-24T12:48:49.922Z,27
2017-01-24T12:49:51.183Z,27
2017-01-24T12:50:47.746Z,27
2017-01-24T12:51:49.871Z,27
2017-01-24T12:52:54.791Z,27
2017-01-24T12:53:50.086Z,27
2017-01-24T12:54:48.290Z,27
2017-01-24T12:55:53.085Z,27
2017-01-24T12:56:52.993Z,27
2017-01-24T12:57:55.711Z,27
2017-01-24T12:58:55.278Z,26.9
2017-01-24T12:59:50.390Z,26.9
2017-01-24T13:00:47.938Z,26.9
2017-01-24T13:01:49.606Z,26.9
2017-01-24T13:02:50.692Z,26.9
2017-01-24T13:03:50.030Z,26.9
2017-01-24T13:04:49.358Z,26.9
2017-01-24T13:05:52.558Z,26.9
2017-01-24T13:06:49.895Z,26.9
2017-01-24T13:07:51.113Z,26.9
2017-01-24T13:08:48.885Z,26.9
2017-01-24T13:09:53.490Z,26.8
2017-01-24T13:10:53.892Z,26.9
2017-01-24T13:11:52.808Z,26.8
2017-01-24T13:12:52.430Z,26.8
2017-01-24T13:13:58.235Z,26.8
2017-01-24T13:14:51.770Z,26.8
2017-01-24T13:15:52.416Z,26.6
2017-01-24T13:16:49.753Z,26.2
2017-01-24T13:17:53.223Z,26
2017-01-24T13:18:50.554Z,26
2017-01-24T13:19:51.331Z,26
2017-01-24T13:20:50.530Z,25.9
2017-01-24T13:21:51.479Z,25.9
2017-01-24T13:22:53.311Z,26